createdAt,value
2022-11-14T00:01:40.428Z,17.40
2022-11-14T00:04:35.500Z,18.40
2022-11-14T00:07:32.426Z,18.20
2022-11-14T00:10:27.947Z,17.30
2022-11-14T00:13:23.337Z,17.20
2022-11-14T00:16:17.657Z,17.40
2022-11-14T00:19:12.398Z,17.70
2022-11-14T00:22:06.812Z,17.90
2022-11-14T00:25:01.635Z,18.20
2022-11-14T00:27:57.487Z,15.50
2022-11-14T00:30:53.687Z,17.40
2022-11-14T00:33:48.376Z,15.80
2022-11-14T00:36:45.151Z,16.30
2022-11-14T00:39:39.612Z,17.00
2022-11-14T00:42:34.729Z,17.90
2022-11-14T00:45:29.645Z,16.90
2022-11-14T00:48:24.759Z,14.70
2022-11-14T00:51:19.467Z,15.60
2022-11-14T00:54:14.397Z,13.90
2022-11-14T00:57:08.821Z,13.00
2022-11-14T01:00:03.214Z,13.10
2022-11-14T01:02:58.411Z,12.10
2022-11-14T01:05:54.379Z,13.40
2022-11-14T01:08:51.082Z,13.70
2022-11-14T01:11:45.959Z,14.80
2022-11-14T01:14:42.165Z,14.20
2022-11-14T01:17:36.680Z,13.30
2022-11-14T01:20:31.492Z,12.70
2022-11-14T01:23:26.451Z,14.60
2022-11-14T01:26:20.885Z,13.60
2022-11-14T01:29:15.657Z,10.70
2022-11-14T01:32:10.455Z,12.10
2022-11-14T01:35:05.430Z,12.50
2022-11-14T01:38:00.117Z,13.10
2022-11-14T01:40:54.695Z,10.60
2022-11-14T01:43:49.548Z,11.90
2022-11-14T01:46:50.486Z,11.10
2022-11-14T01:49:50.164Z,13.50
2022-11-14T01:52:46.642Z,12.10
2022-11-14T01:55:41.124Z,12.20
2022-11-14T01:58:39.671Z,12.20
2022-11-14T02:01:41.580Z,11.40
2022-11-14T02:07:39.153Z,11.70
2022-11-14T02:10:33.919Z,10.60
2022-11-14T02:13:28.442Z,10.20
2022-11-14T02:16:23.253Z,10.60
2022-11-14T02:19:20.390Z,10.50
2022-11-14T02:22:14.937Z,12.80
2022-11-14T02:25:14.218Z,11.80
2022-11-14T02:28:10.841Z,10.00
2022-11-14T02:31:05.613Z,11.80
2022-11-14T02:34:00.437Z,10.10
2022-11-14T02:36:55.393Z,13.30
2022-11-14T02:39:49.828Z,13.10
2022-11-14T02:42:44.305Z,12.70
2022-11-14T02:45:39.205Z,13.40
2022-11-14T02:48:33.562Z,12.80
2022-11-14T02:51:28.145Z,12.50
2022-11-14T02:54:23.033Z,12.50
2022-11-14T02:57:17.582Z,11.30
2022-11-14T03:00:15.676Z,11.50
2022-11-14T03:03:10.318Z,10.50
2022-11-14T03:06:07.775Z,12.40
2022-11-14T03:09:02.173Z,12.00
2022-11-14T03:11:56.967Z,9.80
2022-11-14T03:14:51.387Z,11.70
2022-11-14T03:17:46.147Z,7.80
2022-11-14T03:20:41.661Z,10.90
2022-11-14T03:23:36.932Z,8.90
2022-11-14T03:26:31.205Z,9.10
2022-11-14T03:29:25.857Z,11.40
2022-11-14T03:32:20.473Z,11.50
2022-11-14T03:35:15.900Z,11.20
2022-11-14T03:38:10.451Z,11.70
2022-11-14T03:41:05.258Z,13.40
2022-11-14T03:44:00.027Z,11.20
2022-11-14T03:46:55.361Z,11.30
2022-11-14T03:49:49.760Z,12.50
2022-11-14T03:52:44.381Z,9.90
2022-11-14T03:55:40.328Z,11.90
2022-11-14T03:58:34.691Z,11.30
2022-11-14T04:01:29.557Z,11.30
2022-11-14T04:04:23.898Z,11.80
2022-11-14T04:07:18.458Z,10.10
2022-11-14T04:10:14.504Z,10.70
2022-11-14T04:13:10.347Z,10.50
2022-11-14T04:16:05.334Z,10.40
2022-11-14T04:18:59.796Z,10.80
2022-11-14T04:21:54.316Z,10.00
2022-11-14T04:24:49.081Z,8.40
2022-11-14T04:27:44.105Z,9.50
2022-11-14T04:30:38.621Z,9.90
2022-11-14T04:33:33.744Z,8.60
2022-11-14T04:36:28.631Z,10.40
2022-11-14T04:39:23.586Z,10.00
2022-11-14T04:42:18.315Z,9.30
2022-11-14T04:45:15.015Z,9.30
2022-11-14T04:48:10.465Z,9.90
2022-11-14T04:51:05.125Z,9.80
2022-11-14T04:54:00.062Z,8.70
2022-11-14T04:56:54.536Z,9.60
2022-11-14T04:59:49.276Z,9.90
2022-11-14T05:02:43.959Z,9.70
2022-11-14T05:05:41.932Z,11.40
2022-11-14T05:08:36.808Z,10.10
2022-11-14T05:11:31.679Z,9.70
2022-11-14T05:14:26.180Z,11.30
2022-11-14T05:17:20.961Z,11.60
2022-11-14T05:20:17.323Z,10.70
2022-11-14T05:23:20.757Z,8.20
2022-11-14T05:26:19.152Z,9.50
2022-11-14T05:29:13.774Z,9.80
2022-11-14T05:32:11.220Z,9.20
2022-11-14T05:35:12.187Z,8.30
2022-11-14T05:38:07.748Z,9.60
2022-11-14T05:41:06.269Z,9.30
2022-11-14T05:44:00.592Z,10.00
2022-11-14T05:46:55.368Z,8.20
2022-11-14T05:49:49.705Z,11.60
2022-11-14T05:52:44.939Z,9.90
2022-11-14T05:55:39.625Z,12.10
2022-11-14T05:58:35.834Z,9.00
2022-11-14T06:01:30.371Z,10.10
2022-11-14T06:04:24.970Z,8.10
2022-11-14T06:07:20.508Z,10.40
2022-11-14T06:10:16.279Z,10.70
2022-11-14T06:13:10.523Z,8.10
2022-11-14T06:16:08.218Z,10.70
2022-11-14T06:19:02.631Z,7.90
2022-11-14T06:21:57.264Z,8.60
2022-11-14T06:24:51.641Z,9.70
2022-11-14T06:27:46.304Z,11.20
2022-11-14T06:30:41.543Z,11.40
2022-11-14T06:33:41.233Z,11.40
2022-11-14T06:36:36.002Z,11.90
2022-11-14T06:39:30.964Z,11.00
2022-11-14T06:42:25.780Z,11.50
2022-11-14T06:45:20.519Z,12.20
2022-11-14T06:48:15.358Z,10.40
2022-11-14T06:51:11.512Z,9.10
2022-11-14T06:54:06.504Z,11.90
2022-11-14T06:57:00.780Z,10.50
2022-11-14T06:59:55.421Z,9.50
2022-11-14T07:02:54.137Z,8.80
2022-11-14T07:05:48.786Z,8.40
2022-11-14T07:08:43.768Z,8.70
2022-11-14T07:11:39.475Z,7.70
2022-11-14T07:14:33.865Z,9.70
2022-11-14T07:17:31.126Z,8.20
2022-11-14T07:20:25.974Z,9.50
2022-11-14T07:23:22.975Z,9.60
2022-11-14T07:26:18.006Z,7.60
2022-11-14T07:29:12.953Z,11.30
2022-11-14T07:32:08.350Z,10.40
2022-11-14T07:35:03.170Z,12.50
2022-11-14T07:38:04.051Z,10.50
2022-11-14T07:41:04.637Z,9.20
2022-11-14T07:43:58.949Z,9.10
2022-11-14T07:46:53.524Z,8.90
2022-11-14T07:49:48.121Z,8.50
2022-11-14T07:52:43.491Z,7.90
2022-11-14T07:55:40.183Z,7.10
2022-11-14T07:58:35.851Z,8.60
2022-11-14T08:01:30.831Z,8.10
2022-11-14T08:04:26.220Z,8.90
2022-11-14T08:07:20.605Z,9.60
2022-11-14T08:10:17.847Z,10.10
2022-11-14T08:13:31.683Z,8.70
2022-11-14T08:16:27.434Z,9.90
2022-11-14T08:19:22.328Z,9.50
2022-11-14T08:22:17.140Z,8.30
2022-11-14T08:25:13.221Z,9.10
2022-11-14T08:28:08.258Z,9.30
2022-11-14T08:31:06.809Z,10.90
2022-11-14T08:34:01.173Z,9.70
2022-11-14T08:36:56.878Z,10.40
2022-11-14T08:39:51.586Z,8.20
2022-11-14T08:42:45.796Z,9.80
2022-11-14T08:45:40.677Z,10.50
2022-11-14T08:48:35.691Z,10.20
2022-11-14T08:51:30.198Z,9.10
2022-11-14T08:54:24.879Z,8.20
2022-11-14T08:57:19.842Z,6.90
2022-11-14T09:00:18.951Z,7.80
2022-11-14T09:03:16.334Z,9.80
2022-11-14T09:06:11.347Z,10.00
2022-11-14T09:09:06.659Z,9.40
2022-11-14T09:12:01.278Z,10.80
2022-11-14T09:14:55.690Z,9.90
2022-11-14T09:17:50.127Z,11.20
2022-11-14T09:20:45.049Z,9.30
2022-11-14T09:23:40.132Z,10.70
2022-11-14T09:26:34.589Z,9.90
2022-11-14T09:29:28.885Z,9.50
2022-11-14T09:32:23.753Z,10.30
2022-11-14T09:35:19.854Z,9.00
2022-11-14T09:38:16.003Z,10.50
2022-11-14T09:41:27.426Z,8.80
2022-11-14T09:44:51.562Z,10.20
2022-11-14T09:47:51.076Z,10.20
2022-11-14T09:50:53.827Z,7.20
2022-11-14T09:53:57.864Z,10.00
2022-11-14T09:56:53.550Z,9.30
2022-11-14T09:59:48.638Z,8.00
2022-11-14T10:03:04.609Z,8.30
2022-11-14T10:06:28.354Z,10.60
2022-11-14T10:10:05.809Z,10.80
2022-11-14T10:13:19.049Z,10.00
2022-11-14T10:16:27.393Z,11.20
2022-11-14T10:19:37.493Z,10.50
2022-11-14T10:23:01.541Z,10.20
2022-11-14T10:26:15.651Z,9.90
2022-11-14T10:29:47.867Z,12.10
2022-11-14T10:33:21.557Z,9.50
2022-11-14T10:36:29.764Z,12.00
2022-11-14T10:39:31.917Z,11.60
2022-11-14T10:42:36.740Z,11.80
2022-11-14T10:45:37.023Z,12.30
2022-11-14T10:48:39.774Z,12.10
2022-11-14T10:51:41.448Z,9.50
2022-11-14T10:57:36.968Z,9.00
2022-11-14T11:00:32.992Z,12.90
2022-11-14T11:03:45.379Z,12.20
2022-11-14T11:06:40.429Z,10.50
2022-11-14T11:09:53.681Z,11.00
2022-11-14T11:12:52.191Z,12.60
2022-11-14T11:15:59.628Z,13.00
2022-11-14T11:18:54.588Z,12.40
2022-11-14T11:21:56.866Z,12.40
2022-11-14T11:24:51.539Z,14.20
2022-11-14T11:27:46.770Z,13.30
2022-11-14T11:30:41.618Z,13.30
2022-11-14T11:33:38.919Z,14.00
2022-11-14T11:36:41.125Z,15.40
2022-11-14T11:43:31.690Z,10.40
2022-11-14T11:46:01.296Z,13.30
2022-11-14T11:49:04.021Z,13.90
2022-11-14T11:52:05.901Z,14.40
2022-11-14T11:55:15.743Z,15.80
2022-11-14T11:58:25.473Z,9.60
2022-11-14T12:01:20.933Z,15.30
2022-11-14T12:04:15.597Z,14.30
2022-11-14T12:07:17.240Z,14.20
2022-11-14T12:10:23.449Z,16.60
2022-11-14T12:14:39.690Z,15.60
2022-11-14T12:18:19.891Z,15.00
2022-11-14T12:21:34.388Z,12.10
2022-11-14T12:25:19.060Z,12.50
2022-11-14T12:28:47.303Z,13.20
2022-11-14T12:31:44.592Z,15.60
2022-11-14T12:34:46.372Z,16.90
2022-11-14T12:37:55.257Z,14.60
2022-11-14T12:40:59.410Z,15.60
2022-11-14T12:44:20.765Z,15.50
2022-11-14T12:47:27.501Z,16.10
2022-11-14T12:50:45.111Z,16.00
2022-11-14T12:53:52.397Z,17.30
2022-11-14T12:57:09.927Z,14.90
2022-11-14T13:00:11.147Z,15.10
2022-11-14T13:03:48.421Z,13.60
2022-11-14T13:07:04.860Z,14.10
2022-11-14T13:10:28.874Z,14.30
2022-11-14T13:13:42.090Z,12.80
2022-11-14T13:16:54.647Z,11.40
2022-11-14T13:20:10.071Z,15.70
2022-11-14T13:23:04.984Z,16.80
2022-11-14T13:26:47.796Z,16.80
2022-11-14T13:30:05.045Z,13.80
2022-11-14T13:33:00.293Z,15.90
2022-11-14T13:36:05.663Z,16.80
2022-11-14T13:39:30.421Z,15.90
2022-11-14T13:42:55.463Z,17.20
2022-11-14T13:46:07.173Z,16.60
2022-11-14T13:49:40.900Z,19.20
2022-11-14T13:52:41.512Z,18.70
2022-11-14T13:56:06.611Z,18.70
2022-11-14T13:59:56.315Z,17.20
2022-11-14T14:03:42.788Z,17.90
2022-11-14T14:06:57.409Z,17.80
2022-11-14T14:10:07.259Z,19.50
2022-11-14T14:13:30.265Z,17.80
2022-11-14T14:16:43.143Z,19.30
2022-11-14T14:20:02.869Z,20.90
2022-11-14T14:23:18.689Z,21.00
2022-11-14T14:26:30.661Z,19.90
2022-11-14T14:29:38.498Z,20.20
2022-11-14T14:32:33.375Z,21.10
2022-11-14T14:35:38.792Z,19.10
2022-11-14T14:38:36.699Z,19.70
2022-11-14T14:41:35.896Z,17.50
2022-11-14T14:44:38.103Z,20.90
2022-11-14T14:47:44.407Z,19.20
2022-11-14T14:50:44.054Z,19.80
2022-11-14T14:53:40.393Z,21.10
2022-11-14T14:56:35.039Z,20.70
2022-11-14T14:59:31.926Z,21.90
2022-11-14T15:02:29.192Z,21.10
2022-11-14T15:05:32.443Z,18.40
2022-11-14T15:08:27.774Z,20.00
2022-11-14T15:11:22.879Z,18.40
2022-11-14T15:14:24.566Z,18.60
2022-11-14T15:17:20.162Z,18.90
2022-11-14T15:20:30.405Z,20.60
2022-11-14T15:23:27.883Z,14.90
2022-11-14T15:26:23.268Z,17.40
2022-11-14T15:29:24.416Z,17.80
2022-11-14T15:32:26.573Z,20.90
2022-11-14T15:35:35.823Z,17.40
2022-11-14T15:38:43.886Z,19.40
2022-11-14T15:41:45.160Z,22.40
2022-11-14T15:44:42.504Z,23.50
2022-11-14T15:47:43.374Z,20.10
2022-11-14T15:50:39.317Z,21.80
2022-11-14T15:53:34.312Z,21.40
2022-11-14T15:56:30.653Z,21.80
2022-11-14T15:59:26.344Z,24.10
2022-11-14T16:02:26.363Z,24.60
2022-11-14T16:05:26.896Z,24.70
2022-11-14T16:08:21.310Z,22.60
2022-11-14T16:11:15.583Z,25.50
2022-11-14T16:14:10.319Z,24.50
2022-11-14T16:17:05.311Z,24.80
2022-11-14T16:20:04.800Z,24.60
2022-11-14T16:22:59.646Z,25.20
2022-11-14T16:25:54.263Z,25.60
2022-11-14T16:28:48.673Z,25.10
2022-11-14T16:31:43.800Z,26.30
2022-11-14T16:34:38.580Z,25.30
2022-11-14T16:37:33.567Z,21.40
2022-11-14T16:40:30.786Z,22.40
2022-11-14T16:43:25.018Z,21.00
2022-11-14T16:46:19.642Z,23.70
2022-11-14T16:49:19.672Z,24.70
2022-11-14T16:52:16.920Z,24.00
2022-11-14T16:55:14.147Z,21.70
2022-11-14T16:58:08.997Z,20.80
2022-11-14T17:01:06.540Z,19.70
2022-11-14T17:04:03.978Z,21.40
2022-11-14T17:06:58.606Z,25.40
2022-11-14T17:09:53.664Z,25.50
2022-11-14T17:12:48.249Z,22.30
2022-11-14T17:15:42.866Z,29.70
2022-11-14T17:18:38.852Z,27.90
2022-11-14T17:21:33.818Z,23.20
2022-11-14T17:24:31.399Z,20.70
2022-11-14T17:27:26.688Z,20.40
2022-11-14T17:30:22.480Z,20.20
2022-11-14T17:33:17.218Z,22.50
2022-11-14T17:36:15.531Z,23.90
2022-11-14T17:39:10.327Z,21.30
2022-11-14T17:42:05.552Z,23.90
2022-11-14T17:45:01.989Z,24.40
2022-11-14T17:47:56.848Z,24.30
2022-11-14T17:50:51.860Z,20.00
2022-11-14T17:53:46.915Z,21.70
2022-11-14T17:56:47.441Z,27.10
2022-11-14T17:59:44.477Z,24.00
2022-11-14T18:02:39.307Z,20.30
2022-11-14T18:05:34.102Z,21.80
2022-11-14T18:08:29.391Z,24.80
2022-11-14T18:11:24.440Z,26.00
2022-11-14T18:14:19.190Z,25.00
2022-11-14T18:17:13.743Z,26.90
2022-11-14T18:20:10.904Z,27.10
2022-11-14T18:23:05.255Z,28.10
2022-11-14T18:25:59.659Z,28.30
2022-11-14T18:28:59.072Z,27.90
2022-11-14T18:31:55.032Z,26.80
2022-11-14T18:34:49.410Z,24.90
2022-11-14T18:37:44.563Z,26.70
2022-11-14T18:40:39.564Z,27.30
2022-11-14T18:43:35.126Z,29.60
2022-11-14T18:46:37.135Z,26.50
2022-11-14T18:49:32.626Z,29.40
2022-11-14T18:52:27.102Z,29.60
2022-11-14T18:55:21.701Z,28.00
2022-11-14T18:58:17.735Z,27.50
2022-11-14T19:01:22.118Z,26.00
2022-11-14T19:04:19.692Z,24.10
2022-11-14T19:07:15.505Z,21.40
2022-11-14T19:10:12.767Z,23.50
2022-11-14T19:13:07.487Z,15.20
2022-11-14T19:16:06.876Z,17.10
2022-11-14T19:19:01.729Z,23.00
2022-11-14T19:21:56.883Z,20.30
2022-11-14T19:24:51.371Z,19.20
2022-11-14T19:27:50.469Z,22.90
2022-11-14T19:30:45.160Z,19.10
2022-11-14T19:33:42.318Z,21.90
2022-11-14T19:39:52.496Z,21.00
2022-11-14T19:42:47.177Z,20.70
2022-11-14T19:45:41.659Z,20.00
2022-11-14T19:48:37.025Z,20.60
2022-11-14T19:51:32.881Z,18.10
2022-11-14T19:54:28.732Z,23.10
2022-11-14T19:57:23.049Z,20.90
2022-11-14T20:00:21.194Z,20.60
2022-11-14T20:03:17.025Z,19.50
2022-11-14T20:06:23.415Z,17.70
2022-11-14T20:09:18.675Z,16.20
2022-11-14T20:12:13.946Z,18.80
2022-11-14T20:15:11.189Z,16.00
2022-11-14T20:18:06.290Z,13.20
2022-11-14T20:21:07.978Z,18.90
2022-11-14T20:24:03.719Z,18.70
2022-11-14T20:26:58.446Z,19.20
2022-11-14T20:29:53.678Z,17.20
2022-11-14T20:32:49.337Z,15.50
2022-11-14T20:35:43.945Z,16.80
2022-11-14T20:38:38.858Z,18.90
2022-11-14T20:41:34.090Z,19.80
2022-11-14T20:44:28.653Z,19.30
2022-11-14T20:47:23.974Z,16.50
2022-11-14T20:50:18.979Z,17.50
2022-11-14T20:53:14.282Z,18.00
2022-11-14T20:56:10.187Z,19.10
2022-11-14T20:59:06.511Z,15.00
2022-11-14T21:02:01.648Z,15.10
2022-11-14T21:04:56.611Z,16.80
2022-11-14T21:07:51.607Z,17.10
2022-11-14T21:10:49.175Z,19.20
2022-11-14T21:13:59.991Z,20.30
2022-11-14T21:16:54.878Z,17.00
2022-11-14T21:19:49.650Z,17.00
2022-11-14T21:22:44.996Z,17.80
2022-11-14T21:25:39.620Z,17.50
2022-11-14T21:28:39.377Z,16.90
2022-11-14T21:31:37.075Z,15.70
2022-11-14T21:34:31.281Z,18.00
2022-11-14T21:37:26.011Z,15.20
2022-11-14T21:40:21.864Z,16.70
2022-11-14T21:43:18.677Z,15.90
2022-11-14T21:46:17.340Z,15.70
2022-11-14T21:49:12.569Z,15.10
2022-11-14T21:52:07.456Z,15.20
2022-11-14T21:55:01.738Z,14.50
2022-11-14T21:57:59.206Z,13.30
2022-11-14T22:00:53.764Z,15.50
2022-11-14T22:04:08.605Z,15.00
2022-11-14T22:07:04.555Z,15.40
2022-11-14T22:09:59.282Z,14.10
2022-11-14T22:12:53.917Z,15.10
2022-11-14T22:15:48.610Z,15.50
2022-11-14T22:18:42.865Z,12.50
2022-11-14T22:21:37.320Z,13.50
2022-11-14T22:24:31.964Z,14.50
2022-11-14T22:27:27.057Z,12.70
2022-11-14T22:30:22.225Z,14.40
2022-11-14T22:33:16.716Z,13.10
2022-11-14T22:36:15.629Z,13.70
2022-11-14T22:39:12.481Z,12.90
2022-11-14T22:42:09.123Z,12.70
2022-11-14T22:45:03.368Z,12.80
2022-11-14T22:48:01.407Z,12.40
2022-11-14T22:51:05.663Z,11.70
2022-11-14T22:54:00.649Z,12.50
2022-11-14T22:56:55.019Z,13.40
2022-11-14T22:59:49.706Z,13.60
2022-11-14T23:02:44.107Z,11.00
2022-11-14T23:05:41.744Z,13.50
2022-11-14T23:08:37.080Z,13.00
2022-11-14T23:11:34.072Z,12.80
2022-11-14T23:14:28.427Z,14.50
2022-11-14T23:17:23.087Z,14.70
2022-11-14T23:20:18.621Z,13.10
2022-11-14T23:23:12.770Z,12.60
2022-11-14T23:26:12.344Z,12.10
2022-11-14T23:29:07.193Z,13.40
2022-11-14T23:32:01.967Z,12.70
2022-11-14T23:34:56.949Z,12.20
2022-11-14T23:37:51.511Z,11.20
2022-11-14T23:40:46.019Z,12.90
2022-11-14T23:43:40.499Z,12.10
2022-11-14T23:46:34.975Z,11.80
2022-11-14T23:49:29.779Z,11.30
2022-11-14T23:52:24.278Z,11.00
2022-11-14T23:55:19.128Z,12.40
2022-11-14T23:58:14.022Z,11.80
